sensor_id;sensor_type;location;lat;lon;timestamp;pressure;altitude;pressure_sealevel;temperature;humidity
68399;BME280;56258;52.196;13.868;2022-07-06T00:02:02;101616.88;;;26.74;45.14
68399;BME280;56258;52.196;13.868;2022-07-06T00:04:28;101622.34;;;26.74;45.18
68399;BME280;56258;52.196;13.868;2022-07-06T00:06:55;101622.53;;;26.73;45.17
68399;BME280;56258;52.196;13.868;2022-07-06T00:09:22;101628.63;;;26.68;45.48
68399;BME280;56258;52.196;13.868;2022-07-06T00:11:49;101635.13;;;26.67;45.09
68399;BME280;56258;52.196;13.868;2022-07-06T00:14:15;101629.66;;;26.67;45.40
68399;BME280;56258;52.196;13.868;2022-07-06T00:16:42;101638.47;;;26.69;45.83
68399;BME280;56258;52.196;13.868;2022-07-06T00:19:09;101634.50;;;26.65;45.23
68399;BME280;56258;52.196;13.868;2022-07-06T00:21:35;101638.66;;;26.61;45.66
68399;BME280;56258;52.196;13.868;2022-07-06T00:24:02;101636.13;;;26.60;45.89
68399;BME280;56258;52.196;13.868;2022-07-06T00:26:29;101636.59;;;26.63;45.81
68399;BME280;56258;52.196;13.868;2022-07-06T00:28:56;101634.25;;;26.60;46.06
68399;BME280;56258;52.196;13.868;2022-07-06T00:31:22;101644.78;;;26.63;45.17
68399;BME280;56258;52.196;13.868;2022-07-06T00:33:49;101642.00;;;26.57;45.75
68399;BME280;56258;52.196;13.868;2022-07-06T00:36:16;101638.25;;;26.58;45.28
68399;BME280;56258;52.196;13.868;2022-07-06T00:38:43;101638.44;;;26.56;45.39
68399;BME280;56258;52.196;13.868;2022-07-06T00:41:09;101646.00;;;26.61;45.53
68399;BME280;56258;52.196;13.868;2022-07-06T00:43:53;101636.13;;;26.60;45.11
68399;BME280;56258;52.196;13.868;2022-07-06T00:46:28;101647.69;;;26.55;45.64
68399;BME280;56258;52.196;13.868;2022-07-06T00:48:55;101640.75;;;26.53;45.62
68399;BME280;56258;52.196;13.868;2022-07-06T00:51:25;101634.25;;;26.54;45.24
68399;BME280;56258;52.196;13.868;2022-07-06T00:53:54;101638.88;;;26.53;45.48
68399;BME280;56258;52.196;13.868;2022-07-06T00:56:21;101633.00;;;26.56;45.90
68399;BME280;56258;52.196;13.868;2022-07-06T00:58:48;101635.50;;;26.58;45.83
68399;BME280;56258;52.196;13.868;2022-07-06T01:01:15;101633.63;;;26.52;45.77
68399;BME280;56258;52.196;13.868;2022-07-06T01:03:42;101634.47;;;26.52;45.69
68399;BME280;56258;52.196;13.868;2022-07-06T01:06:08;101643.25;;;26.48;45.91
68399;BME280;56258;52.196;13.868;2022-07-06T01:08:35;101629.59;;;26.48;45.46
68399;BME280;56258;52.196;13.868;2022-07-06T01:11:02;101636.31;;;26.45;45.77
68399;BME280;56258;52.196;13.868;2022-07-06T01:13:31;101632.53;;;26.46;45.50
68399;BME280;56258;52.196;13.868;2022-07-06T01:15:59;101628.13;;;26.45;46.20
68399;BME280;56258;52.196;13.868;2022-07-06T01:18:26;101628.13;;;26.45;45.40
68399;BME280;56258;52.196;13.868;2022-07-06T01:21:14;101630.22;;;26.43;45.46
68399;BME280;56258;52.196;13.868;2022-07-06T01:23:46;101628.94;;;26.39;45.68
68399;BME280;56258;52.196;13.868;2022-07-06T01:26:17;101630.66;;;26.40;46.05
68399;BME280;56258;52.196;13.868;2022-07-06T01:28:46;101626.47;;;26.44;45.78
68399;BME280;56258;52.196;13.868;2022-07-06T01:31:14;101625.19;;;26.40;45.95
68399;BME280;56258;52.196;13.868;2022-07-06T01:33:42;101627.47;;;26.36;45.99
68399;BME280;56258;52.196;13.868;2022-07-06T01:36:09;101632.69;;;26.31;45.96
68399;BME280;56258;52.196;13.868;2022-07-06T01:38:49;101625.97;;;26.34;45.98
68399;BME280;56258;52.196;13.868;2022-07-06T01:41:18;101615.88;;;26.28;46.60
68399;BME280;56258;52.196;13.868;2022-07-06T01:43:45;101625.94;;;26.21;46.61
68399;BME280;56258;52.196;13.868;2022-07-06T01:46:13;101632.19;;;26.14;46.55
68399;BME280;56258;52.196;13.868;2022-07-06T01:48:40;101628.03;;;26.18;46.64
68399;BME280;56258;52.196;13.868;2022-07-06T01:51:07;101639.31;;;26.15;47.21
68399;BME280;56258;52.196;13.868;2022-07-06T01:53:35;101640.13;;;26.09;47.07
68399;BME280;56258;52.196;13.868;2022-07-06T01:56:02;101634.91;;;26.08;46.80
68399;BME280;56258;52.196;13.868;2022-07-06T01:58:28;101629.66;;;26.06;46.91
68399;BME280;56258;52.196;13.868;2022-07-06T02:00:55;101639.50;;;26.07;47.09
68399;BME280;56258;52.196;13.868;2022-07-06T02:03:22;101634.06;;;26.07;46.80
68399;BME280;56258;52.196;13.868;2022-07-06T02:05:49;101640.06;;;25.96;47.10
68399;BME280;56258;52.196;13.868;2022-07-06T02:08:15;101642.38;;;25.99;47.58
68399;BME280;56258;52.196;13.868;2022-07-06T02:10:42;101645.59;;;26.09;47.30
68399;BME280;56258;52.196;13.868;2022-07-06T02:13:09;101653.16;;;26.14;47.00
68399;BME280;56258;52.196;13.868;2022-07-06T02:15:35;101648.53;;;26.14;46.90
68399;BME280;56258;52.196;13.868;2022-07-06T02:18:02;101655.59;;;26.02;47.29
68399;BME280;56258;52.196;13.868;2022-07-06T02:20:29;101651.84;;;26.03;47.22
68399;BME280;56258;52.196;13.868;2022-07-06T02:22:56;101655.22;;;26.05;47.04
68399;BME280;56258;52.196;13.868;2022-07-06T02:25:22;101660.41;;;25.94;47.75
68399;BME280;56258;52.196;13.868;2022-07-06T02:27:49;101661.41;;;25.93;47.27
68399;BME280;56258;52.196;13.868;2022-07-06T02:30:16;101654.94;;;25.94;47.55
68399;BME280;56258;52.196;13.868;2022-07-06T02:32:42;101654.28;;;25.92;47.50
68399;BME280;56258;52.196;13.868;2022-07-06T02:35:09;101659.78;;;25.98;47.36
68399;BME280;56258;52.196;13.868;2022-07-06T02:37:36;101659.78;;;25.98;46.98
68399;BME280;56258;52.196;13.868;2022-07-06T02:40:03;101668.03;;;26.11;46.86
68399;BME280;56258;52.196;13.868;2022-07-06T02:42:30;101665.72;;;26.08;47.17
68399;BME280;56258;52.196;13.868;2022-07-06T02:44:56;101665.22;;;25.98;47.39
68399;BME280;56258;52.196;13.868;2022-07-06T02:47:23;101667.69;;;25.93;47.49
68399;BME280;56258;52.196;13.868;2022-07-06T02:49:50;101682.13;;;25.87;47.37
68399;BME280;56258;52.196;13.868;2022-07-06T02:52:17;101683.34;;;25.78;47.94
68399;BME280;56258;52.196;13.868;2022-07-06T02:54:43;101691.91;;;25.75;47.56
68399;BME280;56258;52.196;13.868;2022-07-06T02:57:10;101692.56;;;25.77;47.97
68399;BME280;56258;52.196;13.868;2022-07-06T02:59:37;101693.59;;;25.76;47.98
68399;BME280;56258;52.196;13.868;2022-07-06T03:02:04;101696.72;;;25.73;47.53
68399;BME280;56258;52.196;13.868;2022-07-06T03:04:31;101695.25;;;25.70;48.18
68399;BME280;56258;52.196;13.868;2022-07-06T03:06:57;101699.44;;;25.73;48.11
68399;BME280;56258;52.196;13.868;2022-07-06T03:09:24;101696.44;;;25.68;47.89
68399;BME280;56258;52.196;13.868;2022-07-06T03:11:51;101690.13;;;25.67;47.88
68399;BME280;56258;52.196;13.868;2022-07-06T03:14:18;101695.38;;;25.69;48.07
68399;BME280;56258;52.196;13.868;2022-07-06T03:16:45;101698.06;;;25.83;47.45
68399;BME280;56258;52.196;13.868;2022-07-06T03:19:17;101693.66;;;25.82;47.66
68399;BME280;56258;52.196;13.868;2022-07-06T03:21:43;101696.81;;;25.86;47.40
68399;BME280;56258;52.196;13.868;2022-07-06T03:24:10;101703.53;;;25.90;47.40
68399;BME280;56258;52.196;13.868;2022-07-06T03:26:37;101704.13;;;25.85;47.42
68399;BME280;56258;52.196;13.868;2022-07-06T03:29:04;101698.69;;;25.85;47.14
68399;BME280;56258;52.196;13.868;2022-07-06T03:31:30;101698.28;;;25.88;46.97
68399;BME280;56258;52.196;13.868;2022-07-06T03:33:57;101701.81;;;25.82;47.64
68399;BME280;56258;52.196;13.868;2022-07-06T03:36:24;101703.72;;;25.82;46.98
68399;BME280;56258;52.196;13.868;2022-07-06T03:38:50;101708.13;;;25.89;47.09
68399;BME280;56258;52.196;13.868;2022-07-06T03:41:17;101702.47;;;25.84;47.35
68399;BME280;56258;52.196;13.868;2022-07-06T03:43:44;101704.91;;;25.79;47.56
68399;BME280;56258;52.196;13.868;2022-07-06T03:46:10;101713.00;;;25.94;46.91
68399;BME280;56258;52.196;13.868;2022-07-06T03:48:37;101706.88;;;25.92;46.92
68399;BME280;56258;52.196;13.868;2022-07-06T03:51:03;101702.47;;;25.91;46.45
68399;BME280;56258;52.196;13.868;2022-07-06T03:53:30;101710.66;;;25.91;46.67
68399;BME280;56258;52.196;13.868;2022-07-06T03:55:57;101708.78;;;25.92;46.61
68399;BME280;56258;52.196;13.868;2022-07-06T03:58:43;101703.78;;;25.95;46.86
68399;BME280;56258;52.196;13.868;2022-07-06T04:01:09;101712.59;;;25.97;46.81
68399;BME280;56258;52.196;13.868;2022-07-06T04:03:36;101705.06;;;25.99;46.75
68399;BME280;56258;52.196;13.868;2022-07-06T04:06:03;101700.44;;;26.00;46.68
68399;BME280;56258;52.196;13.868;2022-07-06T04:08:29;101698.16;;;26.03;46.39
68399;BME280;56258;52.196;13.868;2022-07-06T04:10:56;101703.44;;;26.11;46.07
68399;BME280;56258;52.196;13.868;2022-07-06T04:13:23;101699.19;;;26.02;46.69
68399;BME280;56258;52.196;13.868;2022-07-06T04:15:51;101707.78;;;25.99;46.20
68399;BME280;56258;52.196;13.868;2022-07-06T04:18:18;101707.59;;;26.01;46.73
68399;BME280;56258;52.196;13.868;2022-07-06T04:20:46;101709.06;;;26.03;46.57
68399;BME280;56258;52.196;13.868;2022-07-06T04:23:12;101702.19;;;26.07;46.32
68399;BME280;56258;52.196;13.868;2022-07-06T04:25:39;101717.69;;;26.07;46.20
68399;BME280;56258;52.196;13.868;2022-07-06T04:28:06;101709.72;;;26.05;46.35
68399;BME280;56258;52.196;13.868;2022-07-06T04:30:33;101713.03;;;26.01;46.53
68399;BME280;56258;52.196;13.868;2022-07-06T04:33:00;101715.97;;;25.99;46.53
68399;BME280;56258;52.196;13.868;2022-07-06T04:35:26;101723.50;;;25.97;46.39
68399;BME280;56258;52.196;13.868;2022-07-06T04:37:53;101718.28;;;26.02;46.31
68399;BME280;56258;52.196;13.868;2022-07-06T04:40:20;101730.22;;;26.01;46.12
68399;BME280;56258;52.196;13.868;2022-07-06T04:42:47;101724.78;;;26.01;45.99
68399;BME280;56258;52.196;13.868;2022-07-06T04:45:13;101715.59;;;26.09;45.78
68399;BME280;56258;52.196;13.868;2022-07-06T04:47:40;101720.22;;;26.08;45.80
68399;BME280;56258;52.196;13.868;2022-07-06T04:50:07;101714.75;;;26.08;45.51
68399;BME280;56258;52.196;13.868;2022-07-06T04:52:34;101716.84;;;26.06;45.79
68399;BME280;56258;52.196;13.868;2022-07-06T04:55:00;101720.41;;;26.07;46.16
68399;BME280;56258;52.196;13.868;2022-07-06T04:57:27;101725.66;;;26.08;45.90
68399;BME280;56258;52.196;13.868;2022-07-06T04:59:56;101729.22;;;26.09;46.04
68399;BME280;56258;52.196;13.868;2022-07-06T05:02:23;101727.56;;;26.14;45.46
68399;BME280;56258;52.196;13.868;2022-07-06T05:04:49;101731.19;;;26.22;45.36
68399;BME280;56258;52.196;13.868;2022-07-06T05:07:16;101736.63;;;26.22;45.59
68399;BME280;56258;52.196;13.868;2022-07-06T05:09:43;101729.09;;;26.24;45.77
68399;BME280;56258;52.196;13.868;2022-07-06T05:12:17;101741.28;;;26.28;45.93
68399;BME280;56258;52.196;13.868;2022-07-06T05:14:43;101742.50;;;26.18;46.09
68399;BME280;56258;52.196;13.868;2022-07-06T05:17:10;101747.88;;;26.05;46.27
68399;BME280;56258;52.196;13.868;2022-07-06T05:19:37;101738.94;;;25.90;46.91
68399;BME280;56258;52.196;13.868;2022-07-06T05:22:03;101741.09;;;25.95;47.52
68399;BME280;56258;52.196;13.868;2022-07-06T05:24:30;101739.88;;;26.38;46.40
68399;BME280;56258;52.196;13.868;2022-07-06T05:26:56;101740.78;;;26.45;46.18
68399;BME280;56258;52.196;13.868;2022-07-06T05:29:23;101743.56;;;26.59;46.26
68399;BME280;56258;52.196;13.868;2022-07-06T05:31:50;101743.22;;;26.82;45.13
68399;BME280;56258;52.196;13.868;2022-07-06T05:34:17;101740.31;;;26.90;44.94
68399;BME280;56258;52.196;13.868;2022-07-06T05:36:43;101741.56;;;26.94;45.03
68399;BME280;56258;52.196;13.868;2022-07-06T05:39:10;101745.38;;;26.99;44.47
68399;BME280;56258;52.196;13.868;2022-07-06T05:41:37;101759.63;;;26.95;44.38
68399;BME280;56258;52.196;13.868;2022-07-06T05:44:04;101738.22;;;26.92;44.35
68399;BME280;56258;52.196;13.868;2022-07-06T05:46:30;101739.47;;;26.89;44.92
68399;BME280;56258;52.196;13.868;2022-07-06T05:48:57;101740.91;;;26.85;45.09
68399;BME280;56258;52.196;13.868;2022-07-06T05:51:42;101739.22;;;26.78;44.52
68399;BME280;56258;52.196;13.868;2022-07-06T05:54:09;101735.03;;;26.75;45.00
68399;BME280;56258;52.196;13.868;2022-07-06T05:56:36;101736.47;;;26.71;44.76
68399;BME280;56258;52.196;13.868;2022-07-06T05:59:02;101744.91;;;26.76;45.01
68399;BME280;56258;52.196;13.868;2022-07-06T06:01:29;101733.94;;;26.69;45.02
68399;BME280;56258;52.196;13.868;2022-07-06T06:03:56;101737.72;;;26.68;44.83
68399;BME280;56258;52.196;13.868;2022-07-06T06:06:23;101740.25;;;26.70;44.91
68399;BME280;56258;52.196;13.868;2022-07-06T06:08:49;101730.59;;;26.67;44.61
68399;BME280;56258;52.196;13.868;2022-07-06T06:11:16;101735.41;;;26.72;44.76
68399;BME280;56258;52.196;13.868;2022-07-06T06:13:43;101737.56;;;26.77;44.63
68399;BME280;56258;52.196;13.868;2022-07-06T06:16:10;101734.19;;;26.74;44.46
68399;BME280;56258;52.196;13.868;2022-07-06T06:18:37;101739.03;;;26.79;44.38
68399;BME280;56258;52.196;13.868;2022-07-06T06:21:08;101735.19;;;26.67;44.97
68399;BME280;56258;52.196;13.868;2022-07-06T06:23:35;101741.91;;;26.64;44.74
68399;BME280;56258;52.196;13.868;2022-07-06T06:26:02;101745.66;;;26.57;45.49
68399;BME280;56258;52.196;13.868;2022-07-06T06:28:29;101747.53;;;26.56;45.24
68399;BME280;56258;52.196;13.868;2022-07-06T06:30:55;101748.00;;;26.66;44.70
68399;BME280;56258;52.196;13.868;2022-07-06T06:33:22;101755.34;;;26.72;44.48
68399;BME280;56258;52.196;13.868;2022-07-06T06:35:52;101741.72;;;26.72;44.56
68399;BME280;56258;52.196;13.868;2022-07-06T06:38:21;101738.34;;;26.70;44.43
68399;BME280;56258;52.196;13.868;2022-07-06T06:40:49;101741.25;;;26.62;45.05
68399;BME280;56258;52.196;13.868;2022-07-06T06:43:16;101747.75;;;26.61;45.26
68399;BME280;56258;52.196;13.868;2022-07-06T06:45:42;101741.03;;;26.57;45.05
68399;BME280;56258;52.196;13.868;2022-07-06T06:48:10;101734.75;;;26.57;44.64
68399;BME280;56258;52.196;13.868;2022-07-06T06:50:44;101739.16;;;26.58;44.77
68399;BME280;56258;52.196;13.868;2022-07-06T06:53:11;101741.47;;;26.61;44.38
68399;BME280;56258;52.196;13.868;2022-07-06T06:55:38;101738.31;;;26.57;44.37
68399;BME280;56258;52.196;13.868;2022-07-06T06:58:05;101731.78;;;26.52;44.37
68399;BME280;56258;52.196;13.868;2022-07-06T07:00:31;101737.06;;;26.60;44.68
68399;BME280;56258;52.196;13.868;2022-07-06T07:02:58;101729.91;;;26.52;44.76
68399;BME280;56258;52.196;13.868;2022-07-06T07:05:25;101736.19;;;26.53;44.66
68399;BME280;56258;52.196;13.868;2022-07-06T07:07:51;101737.03;;;26.53;44.68
68399;BME280;56258;52.196;13.868;2022-07-06T07:10:18;101737.88;;;26.54;44.32
68399;BME280;56258;52.196;13.868;2022-07-06T07:12:48;101734.91;;;26.49;44.49
68399;BME280;56258;52.196;13.868;2022-07-06T07:15:16;101742.09;;;26.56;44.56
68399;BME280;56258;52.196;13.868;2022-07-06T07:17:42;101735.78;;;26.56;44.38
68399;BME280;56258;52.196;13.868;2022-07-06T07:20:10;101747.28;;;26.51;44.54
68399;BME280;56258;52.196;13.868;2022-07-06T07:22:36;101749.59;;;26.48;44.79
68399;BME280;56258;52.196;13.868;2022-07-06T07:25:04;101749.38;;;26.49;44.29
68399;BME280;56258;52.196;13.868;2022-07-06T07:27:31;101753.16;;;26.48;44.79
68399;BME280;56258;52.196;13.868;2022-07-06T07:29:58;101756.50;;;26.50;44.26
68399;BME280;56258;52.196;13.868;2022-07-06T07:32:25;101750.69;;;26.53;44.86
68399;BME280;56258;52.196;13.868;2022-07-06T07:34:51;101759.50;;;26.55;44.73
68399;BME280;56258;52.196;13.868;2022-07-06T07:37:18;101749.63;;;26.54;44.44
68399;BME280;56258;52.196;13.868;2022-07-06T07:39:45;101755.94;;;26.55;44.40
68399;BME280;56258;52.196;13.868;2022-07-06T07:42:12;101750.00;;;26.51;44.42
68399;BME280;56258;52.196;13.868;2022-07-06T07:44:43;101756.50;;;26.50;45.01
68399;BME280;56258;52.196;13.868;2022-07-06T07:47:10;101749.38;;;26.49;44.72
68399;BME280;56258;52.196;13.868;2022-07-06T07:49:37;101758.84;;;26.53;44.09
68399;BME280;56258;52.196;13.868;2022-07-06T07:52:04;101753.41;;;26.60;44.29
68399;BME280;56258;52.196;13.868;2022-07-06T07:54:31;101754.47;;;26.59;44.22
68399;BME280;56258;52.196;13.868;2022-07-06T07:56:58;101762.22;;;26.55;44.75
68399;BME280;56258;52.196;13.868;2022-07-06T07:59:25;101755.28;;;26.53;44.68
68399;BME280;56258;52.196;13.868;2022-07-06T08:01:52;101759.28;;;26.57;44.03
68399;BME280;56258;52.196;13.868;2022-07-06T08:04:18;101757.59;;;26.56;44.04
68399;BME280;56258;52.196;13.868;2022-07-06T08:06:46;101759.91;;;26.52;44.47
68399;BME280;56258;52.196;13.868;2022-07-06T08:09:12;101752.75;;;26.51;44.41
68399;BME280;56258;52.196;13.868;2022-07-06T08:11:39;101759.69;;;26.54;44.04
68399;BME280;56258;52.196;13.868;2022-07-06T08:14:06;101751.53;;;26.54;44.22
68399;BME280;56258;52.196;13.868;2022-07-06T08:16:33;101752.81;;;26.64;44.52
68399;BME280;56258;52.196;13.868;2022-07-06T08:19:00;101751.53;;;26.60;44.46
68399;BME280;56258;52.196;13.868;2022-07-06T08:21:33;101744.41;;;26.59;44.02
68399;BME280;56258;52.196;13.868;2022-07-06T08:24:01;101746.28;;;26.59;44.30
68399;BME280;56258;52.196;13.868;2022-07-06T08:26:28;101742.13;;;26.63;44.18
68399;BME280;56258;52.196;13.868;2022-07-06T08:28:55;101745.91;;;26.68;43.52
68399;BME280;56258;52.196;13.868;2022-07-06T08:31:22;101745.03;;;26.61;43.79
68399;BME280;56258;52.196;13.868;2022-07-06T08:34:08;101758.66;;;26.61;44.08
68399;BME280;56258;52.196;13.868;2022-07-06T08:36:36;101747.06;;;26.46;44.43
68399;BME280;56258;52.196;13.868;2022-07-06T08:39:02;101749.16;;;26.44;44.79
68399;BME280;56258;52.196;13.868;2022-07-06T08:41:30;101758.28;;;26.30;44.85
68399;BME280;56258;52.196;13.868;2022-07-06T08:43:57;101759.56;;;26.34;44.73
68399;BME280;56258;52.196;13.868;2022-07-06T08:46:24;101757.13;;;26.45;44.19
68399;BME280;56258;52.196;13.868;2022-07-06T08:48:54;101762.44;;;26.60;44.37
68399;BME280;56258;52.196;13.868;2022-07-06T08:51:22;101758.28;;;26.71;44.00
68399;BME280;56258;52.196;13.868;2022-07-06T08:53:56;101756.59;;;26.70;43.78
68399;BME280;56258;52.196;13.868;2022-07-06T08:56:24;101754.56;;;26.79;43.70
68399;BME280;56258;52.196;13.868;2022-07-06T08:58:52;101750.31;;;26.69;43.57
68399;BME280;56258;52.196;13.868;2022-07-06T09:01:21;101753.63;;;26.58;44.12
68399;BME280;56258;52.196;13.868;2022-07-06T09:03:51;101754.09;;;26.68;43.33
68399;BME280;56258;52.196;13.868;2022-07-06T09:06:24;101759.97;;;26.65;43.59
68399;BME280;56258;52.196;13.868;2022-07-06T09:08:55;101754.03;;;26.55;43.75
68399;BME280;56258;52.196;13.868;2022-07-06T09:11:23;101754.44;;;26.52;44.39
68399;BME280;56258;52.196;13.868;2022-07-06T09:13:51;101745.69;;;26.70;43.08
68399;BME280;56258;52.196;13.868;2022-07-06T09:16:26;101746.97;;;26.74;43.64
68399;BME280;56258;52.196;13.868;2022-07-06T09:19:06;101749.72;;;26.81;43.06
68399;BME280;56258;52.196;13.868;2022-07-06T09:21:33;101748.03;;;26.80;43.07
68399;BME280;56258;52.196;13.868;2022-07-06T09:24:08;101755.34;;;26.72;43.53
68399;BME280;56258;52.196;13.868;2022-07-06T09:26:35;101762.69;;;26.72;43.01
68399;BME280;56258;52.196;13.868;2022-07-06T09:29:03;101763.16;;;26.82;43.34
68399;BME280;56258;52.196;13.868;2022-07-06T09:31:30;101751.22;;;26.90;43.17
68399;BME280;56258;52.196;13.868;2022-07-06T09:34:05;101767.56;;;26.83;43.32
68399;BME280;56258;52.196;13.868;2022-07-06T09:36:46;101768.19;;;26.79;42.90
68399;BME280;56258;52.196;13.868;2022-07-06T09:39:24;101763.53;;;26.72;42.80
68399;BME280;56258;52.196;13.868;2022-07-06T09:42:00;101772.34;;;26.68;43.30
68399;BME280;56258;52.196;13.868;2022-07-06T09:44:30;101774.31;;;26.87;42.67
68399;BME280;56258;52.196;13.868;2022-07-06T09:47:00;101773.50;;;27.00;42.57
68399;BME280;56258;52.196;13.868;2022-07-06T09:49:27;101775.63;;;26.98;42.04
68399;BME280;56258;52.196;13.868;2022-07-06T09:51:57;101779.81;;;27.00;41.67
68399;BME280;56258;52.196;13.868;2022-07-06T09:54:24;101771.44;;;27.02;41.77
68399;BME280;56258;52.196;13.868;2022-07-06T09:56:52;101772.94;;;27.11;42.10
68399;BME280;56258;52.196;13.868;2022-07-06T09:59:21;101762.22;;;27.16;41.19
68399;BME280;56258;52.196;13.868;2022-07-06T10:01:53;101766.88;;;27.42;41.27
68399;BME280;56258;52.196;13.868;2022-07-06T10:04:21;101767.34;;;27.59;40.40
68399;BME280;56258;52.196;13.868;2022-07-06T10:06:49;101773.22;;;27.62;40.68
68399;BME280;56258;52.196;13.868;2022-07-06T10:09:18;101765.22;;;27.61;40.41
68399;BME280;56258;52.196;13.868;2022-07-06T10:11:52;101776.59;;;27.58;40.73
68399;BME280;56258;52.196;13.868;2022-07-06T10:14:30;101770.47;;;27.43;41.28
68399;BME280;56258;52.196;13.868;2022-07-06T10:17:00;101763.75;;;27.39;41.39
68399;BME280;56258;52.196;13.868;2022-07-06T10:19:29;101767.75;;;27.56;40.55
68399;BME280;56258;52.196;13.868;2022-07-06T10:22:01;101760.81;;;27.53;40.66
68399;BME280;56258;52.196;13.868;2022-07-06T10:24:30;101757.91;;;27.75;40.55
68399;BME280;56258;52.196;13.868;2022-07-06T10:26:57;101760.84;;;27.73;40.54
68399;BME280;56258;52.196;13.868;2022-07-06T10:29:24;101761.84;;;27.52;40.77
68399;BME280;56258;52.196;13.868;2022-07-06T10:31:52;101772.78;;;27.46;41.38
68399;BME280;56258;52.196;13.868;2022-07-06T10:34:20;101782.03;;;27.38;41.43
68399;BME280;56258;52.196;13.868;2022-07-06T10:36:52;101773.41;;;27.48;40.84
68399;BME280;56258;52.196;13.868;2022-07-06T10:42:44;101778.94;;;27.68;41.23
68399;BME280;56258;52.196;13.868;2022-07-06T10:45:13;101782.72;;;27.80;40.59
68399;BME280;56258;52.196;13.868;2022-07-06T10:47:42;101774.94;;;27.83;40.07
68399;BME280;56258;52.196;13.868;2022-07-06T10:50:10;101772.81;;;27.92;40.28
68399;BME280;56258;52.196;13.868;2022-07-06T10:52:48;101765.03;;;27.89;40.42
68399;BME280;56258;52.196;13.868;2022-07-06T10:55:38;101771.56;;;27.95;40.16
68399;BME280;56258;52.196;13.868;2022-07-06T10:58:05;101765.66;;;27.98;40.54
68399;BME280;56258;52.196;13.868;2022-07-06T11:00:54;101769.41;;;28.16;39.91
68399;BME280;56258;52.196;13.868;2022-07-06T11:03:31;101760.56;;;28.34;39.68
68399;BME280;56258;52.196;13.868;2022-07-06T11:06:09;101772.78;;;28.12;40.03
68399;BME280;56258;52.196;13.868;2022-07-06T11:08:59;101759.09;;;28.12;39.99
68399;BME280;56258;52.196;13.868;2022-07-06T11:14:05;101759.72;;;28.20;39.83
68399;BME280;56258;52.196;13.868;2022-07-06T11:16:34;101757.66;;;28.09;40.07
68399;BME280;56258;52.196;13.868;2022-07-06T11:19:04;101765.84;;;28.16;40.05
68399;BME280;56258;52.196;13.868;2022-07-06T11:21:39;101756.38;;;28.18;39.89
68399;BME280;56258;52.196;13.868;2022-07-06T11:24:08;101758.44;;;28.23;39.92
68399;BME280;56258;52.196;13.868;2022-07-06T11:26:36;101750.28;;;28.16;39.81
68399;BME280;56258;52.196;13.868;2022-07-06T11:29:07;101748.81;;;28.07;39.96
68399;BME280;56258;52.196;13.868;2022-07-06T11:31:39;101748.41;;;28.04;40.33
68399;BME280;56258;52.196;13.868;2022-07-06T11:34:07;101755.09;;;28.21;39.77
68399;BME280;56258;52.196;13.868;2022-07-06T11:36:35;101751.44;;;28.60;38.81
68399;BME280;56258;52.196;13.868;2022-07-06T11:39:10;101752.84;;;28.69;38.84
68399;BME280;56258;52.196;13.868;2022-07-06T11:41:38;101755.13;;;28.79;38.82
68399;BME280;56258;52.196;13.868;2022-07-06T11:44:04;101750.44;;;28.93;38.30
68399;BME280;56258;52.196;13.868;2022-07-06T11:46:33;101757.47;;;28.75;38.70
68399;BME280;56258;52.196;13.868;2022-07-06T11:49:03;101746.91;;;28.79;38.87
68399;BME280;56258;52.196;13.868;2022-07-06T11:51:32;101745.94;;;29.05;38.32
68399;BME280;56258;52.196;13.868;2022-07-06T11:54:00;101737.94;;;29.35;37.36
68399;BME280;56258;52.196;13.868;2022-07-06T11:56:28;101745.56;;;29.33;37.38
68399;BME280;56258;52.196;13.868;2022-07-06T11:58:57;101732.38;;;29.17;37.83
68399;BME280;56258;52.196;13.868;2022-07-06T12:01:26;101736.78;;;28.86;38.45
68399;BME280;56258;52.196;13.868;2022-07-06T12:03:58;101735.34;;;28.77;38.83
68399;BME280;56258;52.196;13.868;2022-07-06T12:06:26;101733.75;;;28.56;39.00
68399;BME280;56258;52.196;13.868;2022-07-06T12:08:56;101737.78;;;28.54;39.13
68399;BME280;56258;52.196;13.868;2022-07-06T12:11:26;101741.47;;;28.72;38.96
68399;BME280;56258;52.196;13.868;2022-07-06T12:13:58;101733.59;;;28.96;38.49
68399;BME280;56258;52.196;13.868;2022-07-06T12:16:35;101732.09;;;29.00;38.37
68399;BME280;56258;52.196;13.868;2022-07-06T12:19:05;101727.75;;;29.17;37.73
68399;BME280;56258;52.196;13.868;2022-07-06T12:21:34;101728.97;;;28.96;38.34
68399;BME280;56258;52.196;13.868;2022-07-06T12:24:05;101727.13;;;28.77;38.41
68399;BME280;56258;52.196;13.868;2022-07-06T12:26:39;101728.81;;;28.78;38.90
68399;BME280;56258;52.196;13.868;2022-07-06T12:29:08;101727.59;;;28.74;38.70
68399;BME280;56258;52.196;13.868;2022-07-06T12:31:39;101726.31;;;28.70;38.94
68399;BME280;56258;52.196;13.868;2022-07-06T12:34:22;101736.84;;;28.73;39.07
68399;BME280;56258;52.196;13.868;2022-07-06T12:36:57;101726.84;;;28.98;38.40
68399;BME280;56258;52.196;13.868;2022-07-06T12:39:43;101707.91;;;28.97;38.26
68399;BME280;56258;52.196;13.868;2022-07-06T12:42:13;101719.94;;;28.89;38.50
68399;BME280;56258;52.196;13.868;2022-07-06T12:44:49;101715.03;;;28.60;38.72
68399;BME280;56258;52.196;13.868;2022-07-06T12:47:21;101718.44;;;28.48;39.27
68399;BME280;56258;52.196;13.868;2022-07-06T12:50:08;101711.31;;;28.34;39.57
68399;BME280;56258;52.196;13.868;2022-07-06T12:52:35;101708.97;;;28.44;39.46
68399;BME280;56258;52.196;13.868;2022-07-06T12:55:03;101710.97;;;28.69;38.97